createdAt,value
2019-03-11T00:01:34.654Z,2.53
2019-03-11T00:04:39.052Z,2.27
2019-03-11T00:07:43.868Z,3.27
2019-03-11T00:10:48.295Z,2.70
2019-03-11T00:13:52.805Z,2.43
2019-03-11T00:16:57.282Z,2.20
2019-03-11T00:20:01.613Z,2.50
2019-03-11T00:23:05.891Z,2.23
2019-03-11T00:26:10.331Z,1.97
2019-03-11T00:29:17.855Z,2.20
2019-03-11T00:32:22.176Z,1.97
2019-03-11T00:35:26.506Z,1.97
2019-03-11T00:38:30.856Z,1.80
2019-03-11T00:41:35.288Z,1.97
2019-03-11T00:44:39.702Z,1.87
2019-03-11T00:47:44.089Z,1.80
2019-03-11T00:50:48.491Z,1.77
2019-03-11T00:53:52.882Z,1.90
2019-03-11T00:56:57.267Z,1.57
2019-03-11T01:00:05.093Z,2.00
2019-03-11T01:03:09.507Z,2.07
2019-03-11T01:06:13.848Z,1.80
2019-03-11T01:09:19.441Z,1.63
2019-03-11T01:12:23.924Z,1.60
2019-03-11T01:15:28.420Z,1.33
2019-03-11T01:18:32.807Z,1.10
2019-03-11T01:21:37.352Z,1.40
2019-03-11T01:24:41.906Z,1.50
2019-03-11T01:27:46.285Z,1.23
2019-03-11T01:30:50.605Z,1.23
2019-03-11T01:33:54.969Z,1.37
2019-03-11T01:36:59.326Z,2.20
2019-03-11T01:40:03.684Z,1.37
2019-03-11T01:43:08.013Z,1.30
2019-03-11T01:46:12.573Z,1.13
2019-03-11T01:49:16.937Z,1.40
2019-03-11T01:52:21.442Z,1.40
2019-03-11T01:55:25.773Z,1.60
2019-03-11T01:58:30.192Z,1.07
2019-03-11T02:01:34.613Z,1.57
2019-03-11T02:04:38.927Z,1.57
2019-03-11T02:07:44.557Z,1.60
2019-03-11T02:10:48.976Z,1.67
2019-03-11T02:13:53.363Z,1.63
2019-03-11T02:16:57.663Z,1.50
2019-03-11T02:20:02.031Z,1.30
2019-03-11T02:23:06.561Z,1.50
2019-03-11T02:26:11.046Z,1.90
2019-03-11T02:29:15.590Z,2.23
2019-03-11T02:32:19.933Z,2.20
2019-03-11T02:35:28.629Z,2.67
2019-03-11T02:38:33.069Z,2.33
2019-03-11T02:41:37.500Z,1.90
2019-03-11T02:44:41.964Z,2.07
2019-03-11T02:47:46.293Z,2.20
2019-03-11T02:50:50.631Z,2.57
2019-03-11T02:53:55.276Z,3.37
2019-03-11T02:56:59.992Z,2.83
2019-03-11T03:00:05.239Z,3.20
2019-03-11T03:03:28.688Z,3.00
2019-03-11T03:06:33.027Z,2.20
2019-03-11T03:09:37.507Z,1.77
2019-03-11T03:12:41.825Z,2.23
2019-03-11T03:15:46.227Z,2.40
2019-03-11T03:18:50.588Z,1.93
2019-03-11T03:21:54.972Z,2.43
2019-03-11T03:24:59.440Z,1.70
2019-03-11T03:28:04.022Z,2.00
2019-03-11T03:31:08.589Z,3.00
2019-03-11T03:34:12.953Z,1.70
2019-03-11T03:37:19.060Z,1.73
2019-03-11T03:40:23.403Z,2.17
2019-03-11T03:43:27.812Z,2.20
2019-03-11T03:46:33.781Z,2.23
2019-03-11T03:49:38.127Z,1.77
2019-03-11T03:52:43.771Z,2.33
2019-03-11T03:55:48.094Z,1.93
2019-03-11T03:58:52.441Z,1.90
2019-03-11T04:01:56.866Z,2.00
2019-03-11T04:05:01.262Z,2.20
2019-03-11T04:08:06.087Z,2.13
2019-03-11T04:11:12.324Z,2.67
2019-03-11T04:14:16.739Z,2.00
2019-03-11T04:17:21.069Z,2.13
2019-03-11T04:20:25.621Z,2.30
2019-03-11T04:23:33.166Z,2.80
2019-03-11T04:26:38.350Z,2.50
2019-03-11T04:29:42.713Z,2.67
2019-03-11T04:32:47.039Z,2.70
2019-03-11T04:35:51.369Z,2.67
2019-03-11T04:38:55.742Z,3.10
2019-03-11T04:42:00.049Z,2.87
2019-03-11T04:45:04.658Z,2.80
2019-03-11T04:48:09.312Z,2.93
2019-03-11T04:51:13.710Z,2.30
2019-03-11T04:54:18.033Z,2.30
2019-03-11T04:57:23.567Z,2.20
2019-03-11T05:00:29.268Z,3.30
2019-03-11T05:03:33.656Z,2.70
2019-03-11T05:06:38.194Z,2.73
2019-03-11T05:09:44.574Z,4.30
2019-03-11T05:12:48.604Z,4.57
2019-03-11T05:15:53.112Z,4.00
2019-03-11T05:18:57.561Z,3.07
2019-03-11T05:22:02.614Z,3.30
2019-03-11T05:25:07.375Z,3.07
2019-03-11T05:28:13.620Z,2.20
2019-03-11T05:31:18.024Z,2.10
2019-03-11T05:34:22.336Z,1.90
2019-03-11T05:37:26.732Z,1.90
2019-03-11T05:40:31.096Z,1.70
2019-03-11T05:43:35.504Z,1.23
2019-03-11T05:46:40.050Z,1.60
2019-03-11T05:49:44.407Z,1.83
2019-03-11T05:52:48.974Z,1.67
2019-03-11T05:55:53.578Z,1.20
2019-03-11T05:58:57.952Z,0.90
2019-03-11T06:02:02.636Z,0.83
2019-03-11T06:05:07.411Z,0.60
2019-03-11T06:08:22.239Z,0.67
2019-03-11T06:11:26.546Z,0.70
2019-03-11T06:14:34.111Z,0.80
2019-03-11T06:17:38.570Z,0.60
2019-03-11T06:20:48.134Z,0.60
2019-03-11T06:23:52.574Z,0.67
2019-03-11T06:26:56.956Z,0.70
2019-03-11T06:30:03.573Z,0.70
2019-03-11T06:33:07.876Z,0.53
2019-03-11T06:36:12.233Z,0.90
2019-03-11T06:39:16.754Z,0.73
2019-03-11T06:42:21.236Z,1.00
2019-03-11T06:45:25.699Z,1.00
2019-03-11T06:48:30.143Z,1.10
2019-03-11T06:51:34.531Z,0.77
2019-03-11T06:54:38.795Z,0.97
2019-03-11T06:57:43.155Z,1.00
2019-03-11T07:00:47.462Z,0.83
2019-03-11T07:03:55.790Z,0.63
2019-03-11T07:07:00.264Z,0.60
2019-03-11T07:10:04.960Z,0.50
2019-03-11T07:13:09.329Z,0.90
2019-03-11T07:16:13.771Z,0.70
2019-03-11T07:19:18.057Z,0.80
2019-03-11T07:22:23.668Z,1.33
2019-03-11T07:25:28.058Z,1.30
2019-03-11T07:28:32.450Z,1.77
2019-03-11T07:31:36.772Z,1.60
2019-03-11T07:34:41.034Z,1.40
2019-03-11T07:37:45.464Z,1.50
2019-03-11T07:40:50.039Z,1.80
2019-03-11T07:43:54.419Z,1.30
2019-03-11T07:46:58.809Z,2.10
2019-03-11T07:50:03.113Z,1.67
2019-03-11T07:53:09.105Z,1.83
2019-03-11T07:56:13.521Z,1.50
2019-03-11T07:59:17.870Z,1.70
2019-03-11T08:02:22.332Z,1.87
2019-03-11T08:05:26.782Z,1.70
2019-03-11T08:08:33.454Z,1.20
2019-03-11T08:11:37.930Z,1.40
2019-03-11T08:14:45.564Z,1.20
2019-03-11T08:17:49.908Z,1.00
2019-03-11T08:20:57.340Z,1.33
2019-03-11T08:24:01.859Z,1.77
2019-03-11T08:27:06.121Z,2.43
2019-03-11T08:30:11.655Z,1.90
2019-03-11T08:33:17.381Z,2.67
2019-03-11T08:36:21.750Z,3.60
2019-03-11T08:39:26.236Z,4.67
2019-03-11T08:42:31.894Z,4.90
2019-03-11T08:45:39.953Z,3.77
2019-03-11T08:48:45.043Z,4.23
2019-03-11T08:51:49.934Z,4.70
2019-03-11T08:54:54.969Z,5.20
2019-03-11T08:57:59.268Z,5.03
2019-03-11T09:01:03.566Z,4.50
2019-03-11T09:04:07.975Z,4.67
2019-03-11T09:07:15.368Z,5.07
2019-03-11T09:10:21.130Z,6.67
2019-03-11T09:13:25.491Z,5.50
2019-03-11T09:16:29.933Z,5.40
2019-03-11T09:19:34.415Z,7.53
2019-03-11T09:22:38.737Z,6.87
2019-03-11T09:25:47.585Z,7.20
2019-03-11T09:28:51.962Z,5.77
2019-03-11T09:31:58.686Z,5.40
2019-03-11T09:35:05.925Z,6.20
2019-03-11T09:38:10.297Z,6.37
2019-03-11T09:41:14.756Z,6.97
2019-03-11T09:44:22.339Z,6.60
2019-03-11T09:47:27.012Z,6.30
2019-03-11T09:50:31.654Z,7.20
2019-03-11T09:53:36.317Z,6.83
2019-03-11T09:56:43.598Z,6.10
2019-03-11T09:59:47.323Z,4.90
2019-03-11T10:02:53.315Z,4.47
2019-03-11T10:05:58.047Z,4.27
2019-03-11T10:09:02.980Z,3.53
2019-03-11T10:12:07.616Z,3.77
2019-03-11T10:15:14.350Z,4.23
2019-03-11T10:18:18.767Z,4.40
2019-03-11T10:21:26.197Z,4.67
2019-03-11T10:24:30.705Z,4.37
2019-03-11T10:27:35.124Z,1.80
2019-03-11T10:30:39.887Z,1.60
2019-03-11T10:33:50.242Z,1.27
2019-03-11T10:36:54.890Z,1.10
2019-03-11T10:39:59.369Z,1.60
2019-03-11T10:43:03.803Z,1.37
2019-03-11T10:46:08.373Z,1.33
2019-03-11T10:49:12.899Z,1.30
2019-03-11T10:52:17.187Z,1.50
2019-03-11T10:55:21.485Z,1.33
2019-03-11T10:58:29.211Z,1.30
2019-03-11T11:01:34.137Z,1.40
2019-03-11T11:04:38.930Z,1.00
2019-03-11T11:07:43.862Z,1.00
2019-03-11T11:10:48.652Z,1.27
2019-03-11T11:13:53.836Z,1.10
2019-03-11T11:16:58.711Z,1.30
2019-03-11T11:20:04.043Z,1.20
2019-03-11T11:23:08.729Z,0.73
2019-03-11T11:26:13.055Z,0.87
2019-03-11T11:29:17.398Z,1.20
2019-03-11T11:32:21.978Z,0.80
2019-03-11T11:35:26.517Z,0.80
2019-03-11T11:38:31.260Z,0.87
2019-03-11T11:41:35.832Z,1.10
2019-03-11T11:44:40.385Z,2.43
2019-03-11T11:47:47.794Z,1.70
2019-03-11T11:50:52.225Z,1.43
2019-03-11T11:53:56.538Z,1.67
2019-03-11T11:57:00.941Z,1.60
2019-03-11T12:00:07.134Z,1.40
2019-03-11T12:03:11.548Z,1.60
2019-03-11T12:06:18.035Z,1.60
2019-03-11T12:09:22.329Z,1.83
2019-03-11T12:12:26.672Z,1.50
2019-03-11T12:15:31.312Z,2.00
2019-03-11T12:18:37.439Z,1.60
2019-03-11T12:21:42.138Z,1.93
2019-03-11T12:24:46.463Z,1.60
2019-03-11T12:27:54.060Z,1.30
2019-03-11T12:30:57.232Z,1.00
2019-03-11T12:34:01.711Z,1.63
2019-03-11T12:37:06.356Z,1.57
2019-03-11T12:40:11.679Z,1.17
2019-03-11T12:43:18.773Z,1.57
2019-03-11T12:46:23.116Z,1.43
2019-03-11T12:49:27.532Z,1.20
2019-03-11T12:52:32.129Z,1.10
2019-03-11T12:55:38.469Z,0.80
2019-03-11T12:58:42.917Z,1.20
2019-03-11T13:01:47.237Z,0.90
2019-03-11T13:04:51.533Z,1.27
2019-03-11T13:07:55.971Z,1.00
2019-03-11T13:11:02.879Z,0.83
2019-03-11T13:14:08.451Z,1.00
2019-03-11T13:17:12.863Z,1.07
2019-03-11T13:20:23.805Z,1.10
2019-03-11T13:23:28.338Z,0.97
2019-03-11T13:26:32.667Z,0.87
2019-03-11T13:29:37.178Z,0.87
2019-03-11T13:32:41.629Z,1.00
2019-03-11T13:35:45.927Z,1.63
2019-03-11T13:38:50.281Z,1.00
2019-03-11T13:41:54.938Z,0.63
2019-03-11T13:44:59.320Z,1.20
2019-03-11T13:48:03.755Z,1.00
2019-03-11T13:51:08.184Z,0.97
2019-03-11T13:54:12.588Z,1.13
2019-03-11T13:57:17.054Z,1.20
2019-03-11T14:00:21.639Z,1.10
2019-03-11T14:03:26.255Z,1.30
2019-03-11T14:06:30.642Z,1.10
2019-03-11T14:09:35.425Z,1.30
2019-03-11T14:12:39.719Z,1.60
2019-03-11T14:15:44.039Z,1.20
2019-03-11T14:18:48.522Z,1.20
2019-03-11T14:21:55.306Z,1.30
2019-03-11T14:24:59.166Z,1.10
2019-03-11T14:28:03.621Z,1.00
2019-03-11T14:31:08.155Z,1.10
2019-03-11T14:34:13.820Z,1.07
2019-03-11T14:37:18.240Z,1.67
2019-03-11T14:40:22.590Z,0.90
2019-03-11T14:43:29.956Z,1.50
2019-03-11T14:46:34.243Z,1.00
2019-03-11T14:49:38.543Z,1.00
2019-03-11T14:52:42.979Z,0.90
2019-03-11T14:55:47.381Z,1.20
2019-03-11T14:58:52.714Z,1.40
2019-03-11T15:01:57.264Z,1.10
2019-03-11T15:05:01.650Z,1.30
2019-03-11T15:08:08.064Z,1.10
2019-03-11T15:11:12.420Z,1.50
2019-03-11T15:14:16.779Z,1.30
2019-03-11T15:17:21.080Z,1.30
2019-03-11T15:20:25.494Z,1.27
2019-03-11T15:23:29.770Z,1.47
2019-03-11T15:26:34.198Z,1.10
2019-03-11T15:29:38.529Z,1.20
2019-03-11T15:32:42.949Z,1.23
2019-03-11T15:35:47.352Z,1.30
2019-03-11T15:38:52.982Z,1.50
2019-03-11T15:41:59.244Z,1.50
2019-03-11T15:45:06.912Z,1.60
2019-03-11T15:48:12.781Z,1.47
2019-03-11T15:51:19.022Z,1.20
2019-03-11T15:54:25.228Z,1.70
2019-03-11T15:57:38.723Z,1.63
2019-03-11T16:00:38.134Z,1.73
2019-03-11T16:03:46.554Z,1.30
2019-03-11T16:06:52.699Z,1.60
2019-03-11T16:09:59.518Z,1.33
2019-03-11T16:13:05.337Z,1.50
2019-03-11T16:16:11.900Z,1.30
2019-03-11T16:19:18.102Z,1.10
2019-03-11T16:22:26.334Z,1.60
2019-03-11T16:25:33.864Z,1.60
2019-03-11T16:28:47.728Z,1.70
2019-03-11T16:31:47.661Z,1.50
2019-03-11T16:34:53.750Z,1.73
2019-03-11T16:37:58.100Z,2.03
2019-03-11T16:41:02.560Z,1.77
2019-03-11T16:44:07.014Z,1.90
2019-03-11T16:47:11.339Z,4.43
2019-03-11T16:50:18.597Z,2.27
2019-03-11T16:53:22.951Z,3.67
2019-03-11T16:56:27.386Z,3.20
2019-03-11T16:59:31.775Z,2.43
2019-03-11T17:02:36.331Z,1.70
2019-03-11T17:05:40.734Z,1.77
2019-03-11T17:08:45.171Z,2.10
2019-03-11T17:11:49.758Z,1.97
2019-03-11T17:14:57.263Z,1.53
2019-03-11T17:18:01.608Z,1.70
2019-03-11T17:21:06.594Z,2.70
2019-03-11T17:24:11.087Z,1.70
2019-03-11T17:27:15.491Z,1.70
2019-03-11T17:30:20.162Z,2.10
2019-03-11T17:33:24.628Z,2.20
2019-03-11T17:36:29.157Z,2.30
2019-03-11T17:39:33.689Z,2.10
2019-03-11T17:42:47.532Z,2.10
2019-03-11T17:45:52.092Z,2.27
2019-03-11T17:48:56.906Z,2.40
2019-03-11T17:52:02.767Z,2.07
2019-03-11T17:55:08.003Z,2.60
2019-03-11T17:58:12.708Z,2.17
2019-03-11T18:01:17.477Z,2.10
2019-03-11T18:04:21.864Z,2.37
2019-03-11T18:07:26.374Z,2.10
2019-03-11T18:10:32.066Z,2.30
2019-03-11T18:13:36.690Z,2.10
2019-03-11T18:16:41.172Z,2.43
2019-03-11T18:19:46.985Z,2.00
2019-03-11T18:22:51.569Z,2.40
2019-03-11T18:25:56.167Z,2.30
2019-03-11T18:29:00.706Z,2.20
2019-03-11T18:32:06.759Z,2.13
2019-03-11T18:35:19.479Z,2.00
2019-03-11T18:38:25.683Z,2.43
2019-03-11T18:41:30.089Z,2.20
2019-03-11T18:44:38.662Z,2.00
2019-03-11T18:47:44.894Z,2.43
2019-03-11T18:50:49.253Z,2.03
2019-03-11T18:53:53.704Z,1.90
2019-03-11T18:56:58.137Z,2.00
2019-03-11T19:00:02.758Z,2.10
2019-03-11T19:03:07.416Z,1.70
2019-03-11T19:06:11.777Z,1.73
2019-03-11T19:09:16.378Z,1.80
2019-03-11T19:12:20.966Z,1.90
2019-03-11T19:15:25.588Z,1.70
2019-03-11T19:18:31.196Z,8.87
2019-03-11T19:21:35.612Z,2.00
2019-03-11T19:24:40.097Z,1.77
2019-03-11T19:27:44.538Z,1.70
2019-03-11T19:30:49.052Z,1.80
2019-03-11T19:33:53.553Z,1.73
2019-03-11T19:36:58.162Z,1.30
2019-03-11T19:40:05.919Z,1.57
2019-03-11T19:43:10.514Z,1.87
2019-03-11T19:46:15.112Z,1.43
2019-03-11T19:49:19.696Z,1.60
2019-03-11T19:52:24.436Z,1.30
2019-03-11T19:55:29.328Z,1.70
2019-03-11T19:58:36.189Z,1.63
2019-03-11T20:01:40.469Z,1.47
2019-03-11T20:04:45.024Z,1.73
2019-03-11T20:07:49.831Z,1.30
2019-03-11T20:10:54.823Z,1.30
2019-03-11T20:13:59.486Z,1.40
2019-03-11T20:17:04.205Z,1.50
2019-03-11T20:20:09.927Z,1.57
2019-03-11T20:23:15.072Z,1.43
2019-03-11T20:26:19.767Z,1.50
2019-03-11T20:29:24.412Z,1.30
2019-03-11T20:32:29.104Z,1.80
2019-03-11T20:35:34.048Z,0.90
2019-03-11T20:38:38.952Z,1.57
2019-03-11T20:41:43.797Z,1.47
2019-03-11T20:44:48.392Z,1.23
2019-03-11T20:47:53.125Z,1.70
2019-03-11T20:50:57.691Z,1.17
2019-03-11T20:54:02.734Z,1.30
2019-03-11T20:57:07.314Z,1.50
2019-03-11T21:00:14.775Z,1.33
2019-03-11T21:03:19.294Z,1.20
2019-03-11T21:06:23.773Z,1.27
2019-03-11T21:09:28.234Z,1.30
2019-03-11T21:12:32.848Z,1.30
2019-03-11T21:15:37.634Z,1.30
2019-03-11T21:18:42.199Z,1.53
2019-03-11T21:21:46.674Z,1.67
2019-03-11T21:24:59.568Z,1.60
2019-03-11T21:27:57.238Z,1.23
2019-03-11T21:31:04.354Z,1.13
2019-03-11T21:34:09.986Z,1.50
2019-03-11T21:37:15.146Z,1.50
2019-03-11T21:40:19.989Z,1.50
2019-03-11T21:43:24.612Z,1.80
2019-03-11T21:46:29.055Z,2.00
2019-03-11T21:49:33.445Z,2.13
2019-03-11T21:52:39.013Z,1.57
2019-03-11T21:55:43.372Z,1.57
2019-03-11T21:58:47.701Z,1.70
2019-03-11T22:01:52.147Z,1.67
2019-03-11T22:04:56.480Z,1.70
2019-03-11T22:08:00.810Z,2.10
2019-03-11T22:11:05.127Z,1.70
2019-03-11T22:14:09.549Z,1.70
2019-03-11T22:17:13.969Z,1.53
2019-03-11T22:20:18.378Z,1.50
2019-03-11T22:23:22.662Z,1.37
2019-03-11T22:26:27.143Z,1.70
2019-03-11T22:29:31.514Z,1.80
2019-03-11T22:32:35.830Z,1.50
2019-03-11T22:35:40.258Z,1.70
2019-03-11T22:38:44.645Z,1.30
2019-03-11T22:41:49.000Z,1.60
2019-03-11T22:44:54.282Z,1.50
2019-03-11T22:48:00.002Z,1.77
2019-03-11T22:51:09.023Z,1.70
2019-03-11T22:54:18.077Z,1.83
2019-03-11T22:57:29.900Z,2.10
2019-03-11T23:01:00.877Z,2.27
2019-03-11T23:04:09.527Z,1.83
2019-03-11T23:07:18.619Z,1.67
2019-03-11T23:10:26.492Z,1.80
2019-03-11T23:13:35.572Z,1.57
2019-03-11T23:16:43.947Z,1.60
2019-03-11T23:19:50.544Z,1.50
2019-03-11T23:22:56.888Z,1.90
2019-03-11T23:26:08.886Z,2.33
2019-03-11T23:29:14.656Z,1.97
2019-03-11T23:32:28.597Z,1.57
2019-03-11T23:35:35.699Z,1.93
2019-03-11T23:38:43.968Z,1.97
2019-03-11T23:41:57.413Z,2.03
2019-03-11T23:45:07.698Z,2.03
2019-03-11T23:48:18.340Z,2.23
2019-03-11T23:51:29.384Z,1.90
2019-03-11T23:54:42.021Z,1.90
2019-03-11T23:57:50.026Z,1.77
